createdAt,value
2018-02-23T00:03:42.211Z,49.49
2018-02-23T00:06:17.596Z,49.77
2018-02-23T00:08:51.409Z,50.44
2018-02-23T00:11:23.918Z,50.60
2018-02-23T00:13:57.523Z,50.39
2018-02-23T00:16:35.196Z,50.22
2018-02-23T00:21:49.007Z,51.12
2018-02-23T00:24:26.139Z,51.80
2018-02-23T00:29:44.023Z,52.22
2018-02-23T00:32:24.932Z,52.62
2018-02-23T00:35:02.993Z,53.47
2018-02-23T00:37:37.828Z,53.40
2018-02-23T00:40:10.679Z,53.34
2018-02-23T00:42:53.375Z,53.92
2018-02-23T00:45:25.191Z,53.92
2018-02-23T00:47:58.226Z,53.79
2018-02-23T00:50:30.859Z,54.01
2018-02-23T00:53:04.868Z,54.11
2018-02-23T00:55:38.330Z,54.38
2018-02-23T00:58:09.441Z,54.63
2018-02-23T01:00:40.250Z,54.57
2018-02-23T01:03:12.022Z,54.33
2018-02-23T01:05:43.030Z,54.80
2018-02-23T01:08:13.691Z,55.34
2018-02-23T01:10:45.390Z,55.63
2018-02-23T01:13:16.977Z,55.20
2018-02-23T01:15:48.322Z,54.71
2018-02-23T01:18:22.522Z,55.30
2018-02-23T01:20:56.061Z,56.00
2018-02-23T01:23:28.632Z,55.98
2018-02-23T01:26:05.612Z,55.44
2018-02-23T01:28:36.688Z,55.08
2018-02-23T01:31:07.216Z,55.79
2018-02-23T01:33:42.878Z,55.64
2018-02-23T01:36:41.901Z,55.45
2018-02-23T01:39:13.394Z,55.03
2018-02-23T01:41:46.785Z,54.70
2018-02-23T01:44:23.305Z,54.44
2018-02-23T01:46:57.461Z,54.82
2018-02-23T01:49:37.505Z,55.30
2018-02-23T01:52:10.791Z,55.98
2018-02-23T01:54:45.347Z,56.10
2018-02-23T01:57:19.537Z,56.08
2018-02-23T01:59:55.281Z,56.28
2018-02-23T02:02:30.496Z,56.71
2018-02-23T02:05:05.137Z,56.49
2018-02-23T02:07:40.611Z,56.57
2018-02-23T02:10:16.551Z,56.62
2018-02-23T02:12:54.980Z,56.62
2018-02-23T02:15:28.844Z,56.84
2018-02-23T02:18:04.233Z,57.23
2018-02-23T02:20:39.552Z,57.45
2018-02-23T02:23:12.555Z,57.25
2018-02-23T02:25:47.071Z,57.34
2018-02-23T02:28:23.872Z,57.55
2018-02-23T02:30:55.236Z,57.62
2018-02-23T02:33:30.156Z,58.13
2018-02-23T02:36:03.319Z,58.19
2018-02-23T02:38:36.111Z,58.46
2018-02-23T02:41:16.910Z,58.66
2018-02-23T02:43:52.811Z,58.78
2018-02-23T02:46:24.547Z,58.87
2018-02-23T02:48:55.850Z,59.11
2018-02-23T02:51:37.311Z,59.28
2018-02-23T02:54:13.165Z,59.39
2018-02-23T02:56:48.213Z,59.60
2018-02-23T02:59:25.941Z,59.67
2018-02-23T03:02:04.016Z,59.65
2018-02-23T03:04:36.615Z,59.61
2018-02-23T03:07:10.938Z,59.53
2018-02-23T03:09:46.321Z,59.58
2018-02-23T03:12:19.499Z,59.06
2018-02-23T03:14:52.717Z,58.75
2018-02-23T03:17:29.050Z,59.14
2018-02-23T03:20:02.722Z,58.68
2018-02-23T03:22:36.501Z,58.66
2018-02-23T03:25:13.243Z,58.72
2018-02-23T03:27:48.706Z,58.64
2018-02-23T03:30:22.450Z,58.46
2018-02-23T03:33:00.938Z,58.54
2018-02-23T03:35:38.193Z,58.63
2018-02-23T03:38:12.438Z,58.61
2018-02-23T03:40:49.525Z,58.68
2018-02-23T03:43:21.914Z,58.42
2018-02-23T03:45:56.517Z,58.27
2018-02-23T03:48:33.263Z,58.37
2018-02-23T03:51:10.073Z,57.74
2018-02-23T03:53:43.813Z,57.62
2018-02-23T03:56:20.066Z,57.76
2018-02-23T03:58:56.604Z,57.80
2018-02-23T04:01:27.914Z,57.76
2018-02-23T04:04:03.554Z,57.83
2018-02-23T04:06:38.284Z,58.16
2018-02-23T04:09:10.268Z,58.34
2018-02-23T04:11:47.725Z,58.42
2018-02-23T04:14:21.069Z,58.47
2018-02-23T04:16:54.874Z,58.30
2018-02-23T04:19:27.926Z,58.22
2018-02-23T04:22:00.326Z,58.54
2018-02-23T04:24:31.650Z,58.59
2018-02-23T04:29:52.541Z,58.72
2018-02-23T04:32:24.777Z,58.77
2018-02-23T04:34:56.603Z,58.28
2018-02-23T04:37:28.863Z,58.26
2018-02-23T04:40:02.063Z,58.18
2018-02-23T04:42:37.312Z,58.27
2018-02-23T05:30:36.091Z,61.10
2018-02-23T05:33:10.465Z,61.02
2018-02-23T05:35:47.821Z,60.92
2018-02-23T05:38:22.468Z,60.63
2018-02-23T05:40:58.194Z,60.34
2018-02-23T05:43:32.585Z,60.18
2018-02-23T05:46:12.668Z,60.05
2018-02-23T05:48:48.959Z,59.81
2018-02-23T05:51:22.182Z,59.75
2018-02-23T05:53:55.860Z,59.91
2018-02-23T05:56:31.373Z,59.80
2018-02-23T05:59:07.837Z,59.74
2018-02-23T06:01:43.778Z,59.68
2018-02-23T06:04:20.674Z,59.16
2018-02-23T06:06:52.365Z,58.72
2018-02-23T06:09:26.657Z,58.46
2018-02-23T06:12:04.710Z,57.53
2018-02-23T06:14:41.954Z,57.18
2018-02-23T06:17:22.361Z,56.82
2018-02-23T06:19:58.335Z,56.51
2018-02-23T06:22:28.927Z,56.05
2018-02-23T06:25:00.336Z,55.84
2018-02-23T06:27:31.337Z,55.73
2018-02-23T06:30:06.065Z,55.72
2018-02-23T06:32:47.986Z,56.03
2018-02-23T06:35:18.784Z,55.92
2018-02-23T06:37:49.762Z,55.97
2018-02-23T06:40:23.356Z,55.61
2018-02-23T06:42:54.465Z,55.45
2018-02-23T06:45:26.569Z,55.24
2018-02-23T06:47:57.574Z,55.43
2018-02-23T06:50:31.016Z,55.29
2018-02-23T06:53:02.492Z,55.01
2018-02-23T06:55:33.143Z,55.12
2018-02-23T06:58:03.928Z,54.58
2018-02-23T07:00:37.268Z,54.44
2018-02-23T07:03:08.031Z,54.63
2018-02-23T07:05:38.997Z,54.69
2018-02-23T07:08:09.972Z,54.55
2018-02-23T07:10:42.761Z,54.62
2018-02-23T07:13:39.679Z,54.44
2018-02-23T07:16:12.501Z,54.02
2018-02-23T07:18:45.816Z,53.79
2018-02-23T07:21:16.573Z,53.71
2018-02-23T07:23:46.935Z,53.33
2018-02-23T07:26:18.152Z,53.04
2018-02-23T07:28:51.280Z,52.53
2018-02-23T07:31:26.161Z,52.45
2018-02-23T07:33:57.017Z,52.16
2018-02-23T07:36:28.455Z,52.11
2018-02-23T07:38:59.075Z,51.63
2018-02-23T07:41:29.919Z,51.71
2018-02-23T07:44:02.255Z,51.58
2018-02-23T07:46:34.339Z,50.85
2018-02-23T07:49:05.000Z,50.51
2018-02-23T07:51:35.697Z,50.22
2018-02-23T07:54:06.514Z,49.62
2018-02-23T07:56:39.728Z,49.03
2018-02-23T07:59:10.740Z,48.16
2018-02-23T08:01:42.268Z,47.83
2018-02-23T08:04:13.170Z,47.79
2018-02-23T08:06:44.660Z,46.53
2018-02-23T08:09:15.258Z,46.41
2018-02-23T08:11:46.475Z,46.05
2018-02-23T08:14:16.842Z,44.97
2018-02-23T08:16:47.700Z,44.63
2018-02-23T08:19:18.578Z,43.92
2018-02-23T08:21:49.165Z,43.96
2018-02-23T08:24:20.937Z,44.09
2018-02-23T08:26:52.412Z,42.84
2018-02-23T08:29:22.857Z,42.69
2018-02-23T08:31:53.455Z,42.14
2018-02-23T08:34:24.189Z,40.98
2018-02-23T08:36:56.419Z,40.63
2018-02-23T08:39:27.121Z,40.57
2018-02-23T08:42:00.941Z,40.19
2018-02-23T08:44:33.455Z,39.55
2018-02-23T08:47:08.230Z,39.28
2018-02-23T08:49:41.047Z,38.06
2018-02-23T08:52:11.862Z,36.81
2018-02-23T08:54:43.162Z,36.90
2018-02-23T08:57:18.535Z,35.39
2018-02-23T08:59:52.747Z,35.07
2018-02-23T09:02:24.209Z,35.28
2018-02-23T09:05:01.637Z,34.39
2018-02-23T09:07:32.365Z,34.24
2018-02-23T09:10:03.374Z,33.67
2018-02-23T09:12:33.954Z,33.63
2018-02-23T09:15:13.345Z,33.50
2018-02-23T09:17:44.923Z,33.19
2018-02-23T09:20:15.406Z,32.50
2018-02-23T09:22:45.885Z,32.02
2018-02-23T09:25:20.942Z,31.05
2018-02-23T09:27:53.236Z,30.56
2018-02-23T09:30:23.885Z,30.38
2018-02-23T09:33:00.453Z,29.53
2018-02-23T09:35:30.975Z,29.41
2018-02-23T09:38:02.106Z,29.23
2018-02-23T09:40:56.676Z,28.43
2018-02-23T09:43:27.495Z,28.17
2018-02-23T09:45:59.498Z,27.76
2018-02-23T09:48:30.065Z,27.56
2018-02-23T09:51:01.921Z,27.91
2018-02-23T09:53:43.861Z,27.81
2018-02-23T09:56:14.941Z,26.87
2018-02-23T09:58:45.763Z,26.54
2018-02-23T10:01:17.153Z,27.02
2018-02-23T10:03:47.694Z,26.68
2018-02-23T10:06:18.298Z,25.46
2018-02-23T10:08:49.341Z,25.71
2018-02-23T10:11:20.312Z,25.39
2018-02-23T10:13:54.076Z,25.09
2018-02-23T10:16:25.065Z,25.52
2018-02-23T10:18:57.227Z,25.42
2018-02-23T10:21:30.014Z,25.20
2018-02-23T10:24:02.346Z,24.97
2018-02-23T10:26:37.149Z,25.89
2018-02-23T10:29:09.806Z,25.42
2018-02-23T10:31:41.282Z,24.87
2018-02-23T10:34:12.128Z,24.83
2018-02-23T10:36:43.247Z,24.70
2018-02-23T10:39:14.488Z,23.97
2018-02-23T10:41:52.818Z,23.46
2018-02-23T10:44:23.855Z,23.07
2018-02-23T10:46:56.324Z,22.72
2018-02-23T10:49:27.602Z,23.12
2018-02-23T10:51:58.292Z,22.05
2018-02-23T10:54:36.946Z,22.24
2018-02-23T10:57:12.943Z,22.95
2018-02-23T10:59:44.840Z,22.99
2018-02-23T11:02:19.941Z,22.47
2018-02-23T11:04:57.568Z,23.30
2018-02-23T11:07:34.779Z,23.53
2018-02-23T11:10:06.805Z,22.92
2018-02-23T11:12:44.644Z,23.32
2018-02-23T11:15:23.339Z,22.48
2018-02-23T11:17:56.259Z,23.19
2018-02-23T11:20:27.757Z,24.05
2018-02-23T11:23:03.537Z,24.66
2018-02-23T11:25:36.466Z,24.56
2018-02-23T11:28:10.211Z,24.54
2018-02-23T11:30:49.009Z,24.04
2018-02-23T11:33:20.831Z,23.92
2018-02-23T11:35:55.480Z,24.27
2018-02-23T11:38:27.239Z,23.27
2018-02-23T11:41:05.909Z,23.76
2018-02-23T11:43:40.822Z,23.79
2018-02-23T11:46:14.397Z,24.47
2018-02-23T11:48:46.169Z,24.35
2018-02-23T11:51:18.076Z,24.96
2018-02-23T11:53:50.484Z,25.23
2018-02-23T11:56:20.920Z,25.32
2018-02-23T11:59:09.449Z,24.60
2018-02-23T12:01:41.243Z,24.59
2018-02-23T12:04:12.697Z,24.56
2018-02-23T12:06:43.554Z,24.45
2018-02-23T12:09:15.735Z,24.42
2018-02-23T12:11:46.686Z,24.84
2018-02-23T12:14:17.060Z,25.85
2018-02-23T12:16:47.739Z,25.37
2018-02-23T12:19:18.390Z,25.39
2018-02-23T12:21:49.740Z,25.70
2018-02-23T12:24:29.624Z,25.81
2018-02-23T12:27:02.279Z,26.25
2018-02-23T12:29:32.688Z,27.24
2018-02-23T12:32:05.490Z,26.98
2018-02-23T12:34:36.398Z,27.49
2018-02-23T12:37:07.163Z,27.24
2018-02-23T12:39:46.643Z,27.08
2018-02-23T12:42:17.492Z,27.43
2018-02-23T12:44:48.556Z,27.27
2018-02-23T12:47:19.244Z,27.16
2018-02-23T12:49:50.054Z,27.16
2018-02-23T12:52:21.854Z,27.00
2018-02-23T12:54:53.086Z,26.96
2018-02-23T12:57:28.664Z,27.82
2018-02-23T12:59:59.936Z,27.92
2018-02-23T13:02:33.784Z,27.77
2018-02-23T13:05:04.820Z,27.93
2018-02-23T13:07:37.707Z,27.91
2018-02-23T13:10:11.544Z,28.02
2018-02-23T13:12:43.924Z,28.16
2018-02-23T13:15:26.942Z,27.98
2018-02-23T13:17:58.015Z,28.22
2018-02-23T13:20:30.020Z,28.38
2018-02-23T13:23:00.999Z,28.54
2018-02-23T13:25:32.250Z,28.51
2018-02-23T13:28:07.376Z,28.24
2018-02-23T13:30:39.578Z,28.90
2018-02-23T13:33:12.547Z,28.64
2018-02-23T13:35:44.882Z,28.62
2018-02-23T13:38:17.129Z,29.12
2018-02-23T13:40:56.405Z,28.93
2018-02-23T13:43:29.581Z,29.04
2018-02-23T13:46:02.237Z,29.34
2018-02-23T13:48:34.321Z,29.08
2018-02-23T13:51:06.946Z,29.04
2018-02-23T13:53:54.553Z,29.47
2018-02-23T13:56:30.221Z,29.61
2018-02-23T14:02:09.913Z,29.36
2018-02-23T14:04:42.263Z,29.55
2018-02-23T14:07:18.075Z,29.87
2018-02-23T14:09:49.510Z,30.07
2018-02-23T14:12:23.572Z,30.59
2018-02-23T14:14:55.284Z,30.16
2018-02-23T14:17:27.634Z,30.07
2018-02-23T14:20:07.634Z,30.54
2018-02-23T14:22:40.451Z,30.27
2018-02-23T14:25:11.926Z,30.69
2018-02-23T14:27:48.184Z,30.65
2018-02-23T14:30:25.689Z,30.58
2018-02-23T14:32:57.057Z,30.62
2018-02-23T14:35:29.739Z,30.45
2018-02-23T14:38:01.664Z,30.29
2018-02-23T14:40:34.021Z,30.84
2018-02-23T14:43:05.812Z,30.91
2018-02-23T14:45:38.635Z,31.26
2018-02-23T14:48:10.616Z,31.32
2018-02-23T14:50:52.863Z,31.55
2018-02-23T14:53:24.636Z,31.27
2018-02-23T14:55:58.586Z,30.91
2018-02-23T14:58:31.269Z,30.83
2018-02-23T15:01:05.878Z,31.13
2018-02-23T15:03:38.279Z,30.84
2018-02-23T15:06:10.397Z,31.58
2018-02-23T15:08:41.836Z,32.42
2018-02-23T15:11:13.825Z,32.05
2018-02-23T15:13:51.387Z,31.19
2018-02-23T15:16:25.912Z,32.11
2018-02-23T15:18:58.977Z,32.01
2018-02-23T15:21:30.646Z,32.22
2018-02-23T15:24:14.097Z,32.17
2018-02-23T15:26:45.611Z,32.65
2018-02-23T15:29:17.697Z,32.79
2018-02-23T15:32:27.851Z,32.77
2018-02-23T15:35:00.911Z,32.98
2018-02-23T15:37:31.954Z,33.04
2018-02-23T15:40:03.892Z,33.16
2018-02-23T15:42:35.634Z,33.30
2018-02-23T15:45:08.055Z,34.02
2018-02-23T15:47:40.490Z,34.13
2018-02-23T15:50:17.795Z,34.23
2018-02-23T15:52:49.963Z,34.36
2018-02-23T15:55:21.735Z,34.46
2018-02-23T15:57:53.573Z,34.22
2018-02-23T16:00:25.381Z,34.14
2018-02-23T16:02:58.185Z,34.52
2018-02-23T16:05:32.290Z,34.62
2018-02-23T16:14:01.257Z,35.08
2018-02-23T16:16:34.880Z,35.59
2018-02-23T16:19:06.937Z,35.50
2018-02-23T16:21:38.024Z,35.60
2018-02-23T16:24:09.482Z,35.46
2018-02-23T16:26:42.362Z,35.58
2018-02-23T16:29:18.549Z,35.58
2018-02-23T16:31:59.451Z,35.34
2018-02-23T16:34:37.048Z,35.61
2018-02-23T16:37:10.803Z,35.79
2018-02-23T16:39:43.413Z,35.51
2018-02-23T16:42:19.670Z,35.67
2018-02-23T16:44:56.197Z,35.87
2018-02-23T16:47:27.984Z,36.08
2018-02-23T16:49:59.424Z,35.88
2018-02-23T16:52:30.702Z,36.16
2018-02-23T16:55:06.196Z,36.24
2018-02-23T16:57:39.839Z,36.26
2018-02-23T17:00:15.737Z,36.23
2018-02-23T17:02:51.598Z,36.32
2018-02-23T17:05:26.932Z,36.44
2018-02-23T17:08:12.447Z,36.41
2018-02-23T17:10:47.056Z,36.44
2018-02-23T17:13:18.050Z,36.47
2018-02-23T17:15:52.849Z,36.59
2018-02-23T17:18:25.000Z,36.65
2018-02-23T17:20:57.229Z,36.66
2018-02-23T17:23:28.917Z,36.69
2018-02-23T17:39:06.044Z,36.53
2018-02-23T17:41:38.066Z,36.60
2018-02-23T17:44:09.513Z,36.73
2018-02-23T17:46:42.800Z,36.97
2018-02-23T17:49:15.828Z,37.33
2018-02-23T17:51:47.280Z,37.29
2018-02-23T17:54:19.738Z,37.38
2018-02-23T17:56:51.985Z,37.34
2018-02-23T17:59:25.478Z,37.31
2018-02-23T18:01:57.403Z,37.39
2018-02-23T18:04:29.671Z,37.54
2018-02-23T18:07:05.392Z,37.80
2018-02-23T18:09:38.240Z,37.85
2018-02-23T18:12:10.004Z,37.85
2018-02-23T18:14:56.854Z,37.84
2018-02-23T18:17:29.043Z,37.97
2018-02-23T18:20:03.240Z,38.10
2018-02-23T18:22:42.273Z,38.16
2018-02-23T18:25:17.465Z,38.26
2018-02-23T18:27:51.623Z,38.49
2018-02-23T18:30:39.769Z,38.65
2018-02-23T18:33:18.696Z,38.76
2018-02-23T18:36:00.879Z,39.06
2018-02-23T18:38:33.786Z,39.30
2018-02-23T18:41:05.959Z,39.52
2018-02-23T18:43:39.602Z,39.72
2018-02-23T18:46:15.692Z,40.08
2018-02-23T18:49:09.586Z,40.37
2018-02-23T18:51:46.924Z,40.91
2018-02-23T18:57:14.994Z,41.56
2018-02-23T18:59:49.217Z,41.65
2018-02-23T19:02:20.786Z,41.86
2018-02-23T19:04:52.611Z,42.04
2018-02-23T19:07:27.070Z,42.10
2018-02-23T19:09:59.192Z,42.28
2018-02-23T19:12:32.498Z,42.29
2018-02-23T19:15:07.677Z,42.46
2018-02-23T19:17:39.719Z,42.44
2018-02-23T19:20:20.781Z,42.65
2018-02-23T19:22:55.469Z,42.83
2018-02-23T19:25:29.512Z,42.79
2018-02-23T19:28:00.982Z,42.70
2018-02-23T19:30:33.258Z,42.92
2018-02-23T19:33:06.781Z,42.82
2018-02-23T19:35:39.009Z,42.97
2018-02-23T19:38:10.326Z,43.05
2018-02-23T19:40:45.088Z,43.23
2018-02-23T19:43:18.202Z,43.22
2018-02-23T19:45:51.553Z,43.39
2018-02-23T19:48:24.819Z,43.38
2018-02-23T19:50:57.914Z,43.45
2018-02-23T19:53:32.240Z,43.40
2018-02-23T19:56:05.957Z,43.53
2018-02-23T19:58:38.440Z,43.47
2018-02-23T20:01:13.679Z,43.53
2018-02-23T20:03:47.463Z,43.57
2018-02-23T20:06:19.998Z,43.67
2018-02-23T20:08:54.493Z,43.81
2018-02-23T20:11:27.165Z,43.83
2018-02-23T20:13:58.852Z,44.05
2018-02-23T20:16:32.507Z,44.23
2018-02-23T20:19:05.253Z,44.32
2018-02-23T20:21:39.152Z,44.40
2018-02-23T20:24:12.747Z,44.42
2018-02-23T20:26:45.690Z,44.44
2018-02-23T20:29:17.404Z,44.36
2018-02-23T20:31:52.062Z,44.07
2018-02-23T20:34:24.509Z,44.06
2018-02-23T20:36:55.684Z,44.01
2018-02-23T20:39:28.051Z,44.15
2018-02-23T20:41:59.701Z,43.89
2018-02-23T20:44:30.939Z,44.02
2018-02-23T20:47:02.921Z,44.01
2018-02-23T20:49:34.075Z,43.88
2018-02-23T20:52:05.187Z,43.89
2018-02-23T20:54:36.567Z,43.78
2018-02-23T20:57:07.706Z,43.72
2018-02-23T20:59:38.735Z,44.09
2018-02-23T21:02:10.752Z,44.32
2018-02-23T21:04:42.374Z,44.23
2018-02-23T21:07:16.702Z,44.52
2018-02-23T21:09:49.858Z,44.63
2018-02-23T21:12:22.912Z,44.54
2018-02-23T21:14:55.005Z,44.51
2018-02-23T21:17:27.080Z,44.41
2018-02-23T21:20:00.798Z,44.35
2018-02-23T21:22:32.645Z,44.62
2018-02-23T21:25:05.847Z,44.69
2018-02-23T21:27:37.557Z,44.79
2018-02-23T21:30:09.797Z,44.65
2018-02-23T21:32:41.401Z,44.75
2018-02-23T21:35:12.443Z,44.72
2018-02-23T21:37:43.928Z,44.92
2018-02-23T21:40:15.025Z,45.02
2018-02-23T21:42:46.379Z,45.09
2018-02-23T21:45:19.311Z,45.17
2018-02-23T21:47:51.003Z,45.06
2018-02-23T21:50:22.104Z,45.15
2018-02-23T21:52:53.267Z,44.92
2018-02-23T21:55:24.432Z,44.85
2018-02-23T21:57:56.239Z,44.68
2018-02-23T22:00:33.413Z,44.53
2018-02-23T22:03:05.635Z,44.46
2018-02-23T22:09:21.865Z,43.87
2018-02-23T22:11:54.036Z,43.89
2018-02-23T22:14:27.563Z,43.57
2018-02-23T22:17:00.738Z,43.60
2018-02-23T22:19:34.408Z,43.70
2018-02-23T22:22:12.356Z,43.55
2018-02-23T22:24:43.742Z,43.38
2018-02-23T22:27:15.223Z,43.49
2018-02-23T22:29:46.905Z,43.35
2018-02-23T22:32:21.087Z,43.55
2018-02-23T22:34:52.410Z,43.63
2018-02-23T22:37:24.747Z,43.66
2018-02-23T22:39:57.152Z,43.76
2018-02-23T22:42:28.261Z,43.76
2018-02-23T22:45:00.057Z,43.78
2018-02-23T22:47:34.553Z,43.72
2018-02-23T22:50:05.829Z,43.83
2018-02-23T22:52:36.935Z,43.72
2018-02-23T22:55:08.180Z,43.63
2018-02-23T22:57:46.262Z,43.24
2018-02-23T23:00:27.348Z,43.31
2018-02-23T23:03:03.234Z,43.25
2018-02-23T23:05:37.433Z,43.31
2018-02-23T23:08:14.135Z,43.54
2018-02-23T23:10:49.819Z,43.31
2018-02-23T23:13:34.246Z,43.23
2018-02-23T23:16:07.544Z,43.03
2018-02-23T23:18:39.339Z,42.82
2018-02-23T23:21:10.613Z,42.85
2018-02-23T23:23:42.332Z,42.57
2018-02-23T23:26:14.321Z,42.26
2018-02-23T23:28:47.142Z,42.19
2018-02-23T23:31:19.259Z,41.95
2018-02-23T23:33:52.913Z,41.88
2018-02-23T23:36:40.932Z,42.01
2018-02-23T23:39:13.240Z,41.41
2018-02-23T23:41:46.068Z,41.53
2018-02-23T23:44:17.709Z,41.07
2018-02-23T23:46:51.350Z,41.08
2018-02-23T23:49:25.841Z,40.98
2018-02-23T23:51:59.001Z,40.94
2018-02-23T23:54:32.902Z,40.95
2018-02-23T23:57:11.681Z,40.95
2018-02-23T23:59:43.889Z,40.88
